Terminal Aerodrome Forecast
Issued by NWS Wichita, KS

Home | Current Version | Previous Version | Text Only | Print | Product List | Glossary On
Versions: 1 2 3 4 5 6 7 8 9 10 11 12 13 14
000
FTUS43 KICT 240524
TAFICT
TAF
KICT 240524Z 2406/2506 14013KT P6SM SKC
     FM241200 17016G23KT P6SM SCT200
     FM241800 20019G27KT P6SM SCT150
     FM242200 24016G23KT P6SM BKN130
     FM250100 30015G22KT P6SM FEW040 SCT130=

USA.gov is the U.S. government's official web portal to all federal, state and local government web resources and services.